Stations météo

réclame
Mon MeteoGroup
Idre, Suède (2307): Température de l'air & dewpoint: 16.10.2017 02:00:00 - 22.10.2017 02:00:00 (CEST)Idre, Suède (2307): Vitesse du vent & gusts: 16.10.2017 02:00:00 - 22.10.2017 02:00:00 (CEST)Idre, Suède (2307): Direction du vent: 16.10.2017 02:00:00 - 22.10.2017 02:00:00 (CEST)
Date & Time tt [°C] td [°C] ff [km/h] ff [knt] fx [km/h] fx [knt] dd
22.10.2017 02:00:00 -1,3 -1,4 22 12 31 17 S
22.10.2017 01:00:00 -1,2 -1,3 21 11 32 17 S
22.10.2017 00:00:00 -1,4 -1,8 20 11 29 16 S
21.10.2017 23:00:00 -1,7 -2,3 20 11 30 16 S
21.10.2017 22:00:00 -1,9 -2,2 16 8 31 17 S
21.10.2017 21:00:00 -2,2 -2,3 15 8 29 16 S
21.10.2017 20:00:00 -2,1 -2,2 18 10 26 14 SSE
21.10.2017 19:00:00 -2,0 -2,0 15 8 25 13 S
21.10.2017 18:00:00 -1,9 -1,9 14 8 23 12 S
21.10.2017 17:00:00 -1,7 -1,7 16 9 22 12 S
21.10.2017 16:00:00 -1,4 -1,4 15 8 27 15 S
21.10.2017 15:00:00 -1,4 -1,4 19 10 27 15 S
21.10.2017 14:00:00 -1,4 -1,4 16 9 27 15 S
21.10.2017 13:00:00 -1,3 -1,3 19 10 29 15 SSE
21.10.2017 12:00:00 -1,3 -1,3 20 11 31 17 SSE
21.10.2017 11:00:00 -1,3 -1,3 21 11 29 16 SE
21.10.2017 10:00:00 -1,6 -1,6 18 10 30 16 SSE
21.10.2017 09:00:00 -1,7 -1,7 19 11 26 14 SE
21.10.2017 08:00:00 -1,6 -1,6 18 10 26 14 SE
21.10.2017 07:00:00 -1,4 -1,4 16 9 25 13 SSE
21.10.2017 06:00:00 -1,3 -1,3 16 9 29 15 SE
21.10.2017 05:00:00 -1,2 -1,2 17 9 29 16 SSE
21.10.2017 04:00:00 -1,1 -1,1 20 11 28 15 SSE
21.10.2017 03:00:00 -1,1 -1,1 21 11 29 16 SE
21.10.2017 02:00:00 -0,9 -0,9 20 11 34 19 SSE
21.10.2017 01:00:00 -0,6 -0,6 21 12 34 19 SSE
21.10.2017 00:00:00 -0,4 -0,4 23 12 32 17 SE
20.10.2017 23:00:00 -0,3 -0,3 20 11 28 15 SE
20.10.2017 22:00:00 -0,4 -0,4 21 12 28 15 ESE
20.10.2017 21:00:00 -0,3 -0,3 21 11 26 14 SE
20.10.2017 20:00:00 -0,2 -0,2 20 11 31 17 ESE
20.10.2017 19:00:00 -0,3 -0,3 21 11 31 17 SE
20.10.2017 18:00:00 -0,2 -0,2 23 12 30 16 SE
20.10.2017 17:00:00 -0,2 -0,2 23 12 31 17 SE
20.10.2017 16:00:00 0,0 0,0 22 12 31 17 SE
20.10.2017 15:00:00 0,0 0,0 18 10 29 16 SE
20.10.2017 14:00:00 -0,1 -0,1 21 11 27 15 SE
20.10.2017 13:00:00 -0,4 -0,4 19 10 28 15 SE
20.10.2017 12:00:00 -0,5 -0,5 18 10 27 15 SE
20.10.2017 11:00:00 -1,0 -1,0 19 11 25 13 ESE
20.10.2017 10:00:00 -1,1 -1,1 16 9 22 12 ESE
20.10.2017 09:00:00 -0,9 -0,9 17 9 23 12 SE
20.10.2017 08:00:00 -1,2 -1,2 14 7 19 11 SE
20.10.2017 07:00:00 -1,0 -1,0 14 8 19 11 SE
20.10.2017 06:00:00 -1,0 -1,0 12 6 16 9 SSE
20.10.2017 05:00:00 -1,5 -1,8 14 8 23 12 SSE
20.10.2017 04:00:00 -1,0 -1,6 18 10 24 13 SSE
20.10.2017 03:00:00 -1,5 -1,5 15 8 21 12 SSE
20.10.2017 02:00:00 -1,7 -2,1 13 7 18 10 SSE
20.10.2017 01:00:00 -2,0 -2,0 12 6 18 10 SSE
20.10.2017 00:00:00 -1,2 -1,8 13 7 21 11 SE
19.10.2017 23:00:00 -0,4 -1,7 14 7 19 10 SSE
19.10.2017 22:00:00 -0,3 -1,6 11 6 18 10 SSE
19.10.2017 21:00:00 0,3 -1,3 13 7 19 10 S
19.10.2017 20:00:00 0,0 -1,7 13 7 18 10 S
19.10.2017 19:00:00 0,8 -1,4 14 8 20 11 S
19.10.2017 18:00:00 1,0 -0,8 14 7 18 10 SSE
19.10.2017 17:00:00 1,6 -0,6 10 5 16 8 SSE
19.10.2017 16:00:00 3,0 -0,5 11 6 18 10 SSE
19.10.2017 15:00:00 2,9 -0,7 13 7 18 10 SE
19.10.2017 14:00:00 2,9 -0,6 11 6 17 9 SE
19.10.2017 13:00:00 2,6 -1,4 11 6 18 10 S
19.10.2017 12:00:00 2,1 -0,8 10 5 15 8 SSW
19.10.2017 11:00:00 2,1 -0,7 7 4 11 6 S
19.10.2017 10:00:00 0,9 -1,7 8 5 12 7 E
19.10.2017 09:00:00 0,8 -2,1 4 2 11 6 E
19.10.2017 08:00:00 -0,2 -2,1 4 2 14 8 W
19.10.2017 07:00:00 -0,8 -1,8 14 7 26 14 NNW
19.10.2017 06:00:00 -0,7 -1,4 18 10 28 15 NNW
19.10.2017 05:00:00 -0,7 -1,5 23 12 29 16 NNW
19.10.2017 04:00:00 -0,9 -1,7 13 7 22 12 NNW
19.10.2017 03:00:00 -0,6 -1,3 16 9 23 12 WNW
19.10.2017 02:00:00 -1,0 -1,4 12 7 39 21 W
19.10.2017 01:00:00 0,2 -0,9 32 17 38 21 NNW
19.10.2017 00:00:00 0,3 -1,1 21 11 39 21 NNW
18.10.2017 23:00:00 -0,1 -0,5 19 11 39 21 NNW
18.10.2017 22:00:00 0,6 -0,3 28 15 51 28 NW
18.10.2017 21:00:00 0,7 -0,3 29 16 46 25 NW
18.10.2017 20:00:00 1,2 -0,6 30 16 49 26 NW
18.10.2017 19:00:00 1,6 -0,3 31 17 50 27 NW
18.10.2017 18:00:00 1,6 -0,6 26 14 52 28 NW
18.10.2017 17:00:00 2,7 -0,1 41 22 56 30 NW
18.10.2017 16:00:00 3,2 -0,4 39 21 61 33 NW
18.10.2017 15:00:00 3,7 0,2 37 20 64 34 NW
18.10.2017 14:00:00 3,8 0,5 41 22 71 39 NW
18.10.2017 13:00:00 3,5 0,5 45 24 73 40 NW
18.10.2017 12:00:00 3,0 0,4 50 27 71 38 NW
18.10.2017 11:00:00 2,5 2,1 43 23 67 36 NW
18.10.2017 10:00:00 1,8 1,7 35 19 57 31 WNW
18.10.2017 09:00:00 1,1 1,0 35 19 51 28 WNW
18.10.2017 08:00:00 0,7 0,7 35 19 51 28 WNW
18.10.2017 07:00:00 -0,1 -0,1 29 16 46 25 NW
18.10.2017 06:00:00 0,0 0,0 30 16 45 25 WNW
18.10.2017 05:00:00 0,1 0,1 35 19 49 26 NW
18.10.2017 04:00:00 -0,7 -0,7 22 12 44 24 NW
18.10.2017 03:00:00 -0,3 -0,3 16 9 34 18 WNW
18.10.2017 02:00:00 -0,4 -0,4 19 11 42 23 NNW
18.10.2017 01:00:00 -0,2 -0,2 34 19 60 32 NNW
18.10.2017 00:00:00 -0,1 -0,1 39 21 53 29 NNW
17.10.2017 23:00:00 -0,2 -0,2 32 17 50 27 NNW
17.10.2017 22:00:00 0,0 0,0 31 17 40 22 NNW
17.10.2017 21:00:00 0,4 0,4 22 12 36 19 NNW
17.10.2017 20:00:00 0,9 0,9 22 12 31 17 NNW
17.10.2017 19:00:00 1,4 1,4 19 11 31 17 NW
17.10.2017 18:00:00 1,8 1,8 16 9 22 12 WNW
17.10.2017 17:00:00 2,5 2,5 11 6 19 10 WSW
17.10.2017 16:00:00 2,4 2,4 11 6 19 10 SW
17.10.2017 15:00:00 1,9 1,9 10 6 16 9 SSW
17.10.2017 14:00:00 1,8 1,8 13 7 21 11 S
17.10.2017 13:00:00 1,3 1,3 14 7 18 10 SSE
17.10.2017 12:00:00 0,9 0,9 14 8 20 11 ESE
17.10.2017 11:00:00 0,6 0,6 17 9 28 15 SE
17.10.2017 10:00:00 0,4 0,4 21 11 28 15 SE
17.10.2017 09:00:00 0,0 0,0 21 11 28 15 SE
17.10.2017 08:00:00 -0,3 -0,3 16 9 23 12 E
17.10.2017 07:00:00 -0,2 -0,9 13 7 16 9 ESE
17.10.2017 06:00:00 1,0 -0,3 6 3 17 9 SE
17.10.2017 05:00:00 1,3 -1,6 8 5 13 7 ESE
17.10.2017 04:00:00 2,2 -1,1 4 2 13 7 NW
17.10.2017 03:00:00 2,5 -2,4 4 2 16 9 W
17.10.2017 02:00:00 1,6 -2,2 7 4 17 9 WSW
17.10.2017 01:00:00 2,4 -2,3 10 6 21 11 NNW
17.10.2017 00:00:00 2,3 -2,0 13 7 21 11 W
16.10.2017 23:00:00 3,3 -2,0 14 8 19 11 WNW
16.10.2017 22:00:00 2,9 -1,5 16 9 23 12 W
16.10.2017 21:00:00 2,7 -1,1 7 4 16 9 WSW
16.10.2017 20:00:00 3,2 -0,8 11 6 16 9 W
16.10.2017 19:00:00 3,4 -0,8 10 5 12 6 WSW
16.10.2017 18:00:00 3,8 -1,0 12 6 22 12 W
16.10.2017 17:00:00 5,4 -1,1 15 8 38 20 WNW
16.10.2017 16:00:00 5,9 -0,8 25 13 44 24 WNW
16.10.2017 15:00:00 5,3 0,1 18 10 34 18 W
16.10.2017 14:00:00 4,6 0,2 21 12 35 19 NW
16.10.2017 13:00:00 4,9 0,1 29 16 52 28 NW
16.10.2017 12:00:00 4,6 0,2 27 14 45 25 WNW
16.10.2017 11:00:00 4,2 0,5 27 15 50 27 NW
16.10.2017 10:00:00 4,1 0,6 34 18 50 27 NW
16.10.2017 09:00:00 4,6 0,7 34 18 67 36 NW
16.10.2017 08:00:00 6,2 1,9 30 16 63 34 NW
16.10.2017 07:00:00 8,0 3,3 48 26 68 37 W
16.10.2017 06:00:00 7,9 4,8 37 20 56 30 WSW
16.10.2017 05:00:00 8,0 6,0 33 18 55 30 WSW
16.10.2017 04:00:00 8,3 8,0 45 25 64 35 SW
16.10.2017 03:00:00 8,3 8,3 34 18 61 33 SW
16.10.2017 02:00:00 8,0 8,0 39 21 62 34 SW

tt = Température de l'air
td = dewpoint
ff = Vitesse du vent
fx = gusts
dd = Direction du vent

stations d'obs. à proximité